Time;durP1;ratioP1;P1;durP2;ratioP2;P2;SDS_P1;SDS_P2;PMS_P1;PMS_P2;Temp;Humidity;BMP_temperature;BMP_pressure;BME280_temperature;BME280_humidity;BME280_pressure;Samples;Min_cycle;Max_cycle;Signal;HPM_P1;HPM_P2
2022/02/06 00:01:47;;;;;;;7.60;2.83;;;2.40;6.50;;;;;;7365719;19;20503;-59
2022/02/06 00:04:17;;;;;;;4.10;2.95;;;2.30;6.70;;;;;;7362172;19;20007;-59
2022/02/06 00:06:48;;;;;;;8.13;2.90;;;2.30;7.20;;;;;;7361617;19;20456;-59
2022/02/06 00:09:18;;;;;;;8.32;2.90;;;2.20;7.20;;;;;;7365509;19;20846;-59
2022/02/06 00:11:48;;;;;;;6.28;2.78;;;2.30;7.20;;;;;;7387370;19;20024;-58
2022/02/06 00:14:18;;;;;;;7.47;2.58;;;2.30;7.20;;;;;;7362834;19;20716;-59
2022/02/06 00:16:53;;;;;;;6.88;3.10;;;2.20;7.30;;;;;;7358804;19;20288;-59
2022/02/06 00:19:26;;;;;;;11.60;2.67;;;2.20;7.20;;;;;;7363422;19;20006;-61
2022/02/06 00:21:56;;;;;;;6.10;2.90;;;2.20;7.20;;;;;;7366564;19;20078;-59
2022/02/06 00:24:28;;;;;;;8.25;2.53;;;2.20;7.60;;;;;;7359777;19;20109;-59
2022/02/06 00:27:03;;;;;;;5.65;2.50;;;2.30;7.30;;;;;;7358620;19;20538;-59
2022/02/06 00:29:43;;;;;;;5.88;2.42;;;2.30;7.20;;;;;;7387073;19;20082;-59
2022/02/06 00:32:27;;;;;;;7.97;3.08;;;2.40;7.30;;;;;;7364372;19;20108;-60
2022/02/06 00:40:28;;;;;;;6.97;2.35;;;2.40;6.50;;;;;;7367330;19;20010;-60
2022/02/06 00:42:58;;;;;;;6.50;2.85;;;2.40;7.30;;;;;;7360995;19;20497;-59
2022/02/06 00:45:28;;;;;;;5.10;2.60;;;2.40;6.70;;;;;;7361555;19;20002;-59
2022/02/06 00:48:00;;;;;;;6.65;2.58;;;2.50;6.50;;;;;;7363250;19;20029;-59
2022/02/06 00:50:31;;;;;;;5.70;2.38;;;2.50;6.60;;;;;;7386148;19;20010;-59
2022/02/06 00:53:06;;;;;;;6.28;2.78;;;2.60;5.90;;;;;;7360968;19;20014;-60
2022/02/06 00:55:36;;;;;;;7.95;2.65;;;2.60;6.20;;;;;;7362291;19;20114;-60
2022/02/06 00:58:06;;;;;;;6.63;2.67;;;2.60;6.30;;;;;;7362624;19;20017;-59
2022/02/06 01:00:36;;;;;;;5.40;2.47;;;2.60;6.20;;;;;;7365005;19;20010;-59
2022/02/06 01:03:08;;;;;;;8.85;3.20;;;2.50;6.80;;;;;;7363789;19;20019;-59
2022/02/06 01:06:01;;;;;;;6.47;2.85;;;2.50;6.60;;;;;;7358650;19;20010;-60
2022/02/06 01:08:31;;;;;;;5.93;2.80;;;2.60;6.90;;;;;;7383275;19;20014;-60
2022/02/06 01:11:05;;;;;;;6.35;2.70;;;2.50;7.20;;;;;;7365611;19;20087;-59
2022/02/06 01:13:44;;;;;;;3.03;2.00;;;2.60;7.00;;;;;;7360274;19;20010;-59
2022/02/06 01:16:19;;;;;;;4.65;2.50;;;2.50;7.40;;;;;;7357489;19;20017;-60
2022/02/06 01:18:56;;;;;;;5.90;2.42;;;2.60;7.00;;;;;;7362762;19;20090;-60
2022/02/06 01:21:39;;;;;;;8.00;2.25;;;2.50;7.40;;;;;;7364989;19;20014;-60
2022/02/06 01:24:14;;;;;;;4.63;2.40;;;2.60;7.40;;;;;;7357547;19;20041;-60
2022/02/06 01:26:51;;;;;;;5.28;2.22;;;2.60;7.40;;;;;;7379596;19;20018;-60
2022/02/06 01:29:32;;;;;;;7.95;2.20;;;2.60;7.40;;;;;;7362636;19;20006;-59
2022/02/06 01:32:03;;;;;;;5.65;1.90;;;2.60;6.80;;;;;;7362702;19;20094;-59
2022/02/06 01:34:43;;;;;;;6.70;2.00;;;2.70;7.00;;;;;;7359069;19;20017;-59
2022/02/06 01:37:22;;;;;;;5.15;2.80;;;2.70;6.30;;;;;;7359567;19;20006;-59
2022/02/06 01:40:10;;;;;;;4.72;1.73;;;2.80;6.20;;;;;;7361523;19;20006;-59
2022/02/06 01:42:44;;;;;;;4.47;2.10;;;2.80;6.10;;;;;;7359801;19;20014;-59
2022/02/06 02:01:43;;;;;;;3.92;1.58;;;2.90;5.90;;;;;;7368366;19;20042;-59
2022/02/06 02:04:18;;;;;;;3.97;1.83;;;2.90;5.60;;;;;;7367488;19;20011;-60
2022/02/06 02:07:18;;;;;;;8.40;1.98;;;2.90;5.80;;;;;;7363634;19;20018;-59
2022/02/06 02:18:23;;;;;;;5.22;1.55;;;3.20;3.70;;;;;;7368430;19;20355;-59
2022/02/06 02:21:11;;;;;;;4.40;1.83;;;3.30;2.70;;;;;;7389774;19;20073;-60
2022/02/06 02:24:10;;;;;;;5.40;1.45;;;3.30;2.40;;;;;;7366336;19;20025;-60
2022/02/06 02:26:49;;;;;;;4.05;1.58;;;3.30;2.50;;;;;;7365693;19;20037;-58
2022/02/06 02:32:36;;;;;;;3.25;1.80;;;3.40;1.80;;;;;;7367306;19;20018;-59
2022/02/06 02:44:04;;;;;;;3.40;1.60;;;3.60;1.00;;;;;;7363939;19;19921;-59
2022/02/06 02:46:31;;;;;;;6.88;1.48;;;3.60;1.00;;;;;;7366421;19;20010;-59
2022/02/06 02:49:01;;;;;;;5.32;1.50;;;3.50;1.00;;;;;;7368720;19;20056;-59
2022/02/06 02:51:36;;;;;;;4.07;1.25;;;3.60;1.10;;;;;;7365808;19;20085;-59
2022/02/06 02:54:13;;;;;;;6.03;1.23;;;3.60;1.00;;;;;;7363238;19;20082;-59
2022/02/06 02:56:47;;;;;;;5.28;1.13;;;3.70;1.00;;;;;;7390063;19;20362;-60
2022/02/06 02:59:24;;;;;;;;;;;3.70;1.00;;;;;;7366071;19;20467;-59
2022/02/06 03:01:56;;;;;;;15.00;1.73;;;3.80;1.00;;;;;;7364035;19;19930;-59
2022/02/06 03:04:27;;;;;;;3.33;1.40;;;3.90;1.00;;;;;;7362077;19;20043;-59
2022/02/06 03:06:57;;;;;;;4.68;1.77;;;3.90;1.00;;;;;;7369152;19;20011;-59
2022/02/06 03:09:35;;;;;;;6.80;1.63;;;3.90;1.00;;;;;;7364498;19;20487;-59
2022/02/06 03:12:06;;;;;;;6.05;1.50;;;3.90;1.00;;;;;;7368034;19;20021;-60
2022/02/06 03:14:45;;;;;;;3.15;1.25;;;3.90;1.00;;;;;;7382303;19;20024;-59
2022/02/06 03:17:31;;;;;;;5.13;1.55;;;3.90;1.00;;;;;;7366371;19;20010;-58
2022/02/06 03:20:06;;;;;;;3.58;1.42;;;3.90;1.00;;;;;;7366155;19;20412;-59
2022/02/06 03:22:48;;;;;;;3.22;1.20;;;3.90;1.00;;;;;;7362410;19;20015;-59
2022/02/06 03:25:24;;;;;;;2.65;1.30;;;3.90;1.00;;;;;;7363987;19;20458;-59
2022/02/06 03:27:55;;;;;;;5.80;1.35;;;3.90;1.00;;;;;;7365927;19;20526;-59
2022/02/06 03:30:29;;;;;;;3.65;1.27;;;3.90;1.00;;;;;;7367981;19;20095;-59
2022/02/06 03:32:59;;;;;;;5.47;1.52;;;3.90;1.00;;;;;;7367848;19;20015;-59
2022/02/06 03:35:29;;;;;;;4.57;1.10;;;3.80;1.00;;;;;;7384500;19;20074;-59
2022/02/06 03:37:59;;;;;;;2.55;1.10;;;3.80;1.00;;;;;;7366244;19;20010;-59
2022/02/06 03:40:37;;;;;;;5.63;1.40;;;3.70;1.00;;;;;;7363422;19;20021;-59
2022/02/06 03:43:12;;;;;;;6.50;1.35;;;3.70;1.00;;;;;;7362128;19;20549;-59
2022/02/06 03:45:46;;;;;;;4.45;1.73;;;3.70;1.00;;;;;;7365981;19;20026;-58
2022/02/06 03:48:21;;;;;;;13.20;1.93;;;3.70;1.00;;;;;;7368097;19;20026;-59
2022/02/06 03:50:54;;;;;;;5.43;1.50;;;3.60;1.00;;;;;;7388509;19;20287;-60
2022/02/06 03:53:26;;;;;;;8.55;1.90;;;3.70;1.00;;;;;;7362968;19;20010;-59
2022/02/06 03:55:59;;;;;;;6.55;1.52;;;3.70;1.00;;;;;;7366731;19;20028;-59
2022/02/06 03:58:29;;;;;;;5.25;1.70;;;3.70;1.00;;;;;;7355276;19;20025;-59
2022/02/06 04:00:59;;;;;;;8.13;1.63;;;3.70;1.00;;;;;;7360656;19;20017;-59
2022/02/06 04:03:29;;;;;;;3.05;1.25;;;3.70;1.00;;;;;;7354411;19;21221;-59
2022/02/06 04:05:58;;;;;;;7.72;1.67;;;3.80;1.00;;;;;;7386628;19;20021;-59
2022/02/06 04:08:30;;;;;;;6.32;1.40;;;3.80;1.00;;;;;;7362292;19;20013;-57
2022/02/06 04:11:06;;;;;;;5.88;1.40;;;4.00;1.00;;;;;;7389781;19;20094;-60
2022/02/06 04:13:41;;;;;;;6.53;1.55;;;4.10;1.00;;;;;;7362197;19;20493;-59
2022/02/06 04:16:15;;;;;;;4.53;1.33;;;4.10;1.00;;;;;;7364465;19;20110;-59
2022/02/06 04:18:52;;;;;;;5.50;1.67;;;4.10;1.00;;;;;;7387150;19;20026;-60
2022/02/06 04:21:22;;;;;;;8.25;1.48;;;4.10;1.00;;;;;;7368424;19;20629;-59
2022/02/06 04:23:52;;;;;;;3.47;1.30;;;4.10;1.00;;;;;;7359103;19;20014;-59
2022/02/06 04:26:25;;;;;;;6.97;1.17;;;4.10;1.00;;;;;;7366519;19;20011;-59
2022/02/06 04:28:54;;;;;;;3.45;1.00;;;4.20;1.00;;;;;;7366605;19;20010;-59
2022/02/06 04:31:24;;;;;;;2.85;0.90;;;4.20;1.00;;;;;;7366136;19;20010;-59
2022/02/06 04:33:54;;;;;;;4.60;1.45;;;4.20;1.00;;;;;;7361997;19;20355;-59
2022/02/06 04:36:29;;;;;;;7.90;2.80;;;4.20;1.00;;;;;;7385708;19;20017;-58
2022/02/06 04:39:10;;;;;;;;;;;4.20;1.00;;;;;;7363825;19;20725;-59
2022/02/06 04:41:59;;;;;;;7.80;1.75;;;4.20;1.00;;;;;;7366432;19;19911;-59
2022/02/06 04:50:21;;;;;;;1.75;1.13;;;4.30;1.00;;;;;;7363922;19;20488;-59
2022/02/06 04:56:02;;;;;;;6.78;1.38;;;4.40;1.00;;;;;;7362806;19;20006;-59
2022/02/06 05:13:01;;;;;;;3.35;1.20;;;4.60;1.00;;;;;;7363823;19;20386;-58
2022/02/06 05:15:41;;;;;;;3.45;1.70;;;4.60;1.00;;;;;;7361217;19;20028;-58
2022/02/06 05:21:28;;;;;;;4.88;1.25;;;4.70;1.00;;;;;;7363393;19;20015;-59
2022/02/06 05:27:01;;;;;;;3.22;1.35;;;4.60;1.00;;;;;;7363295;19;20388;-59
2022/02/06 05:29:39;;;;;;;7.20;1.25;;;4.70;1.00;;;;;;7363786;19;20011;-59
2022/02/06 05:32:22;;;;;;;5.70;1.48;;;4.70;1.00;;;;;;7364832;19;20085;-58
2022/02/06 05:34:52;;;;;;;1.85;0.90;;;4.70;1.00;;;;;;7358708;19;20029;-59
2022/02/06 05:37:25;;;;;;;3.90;1.38;;;4.70;1.00;;;;;;7367027;19;20011;-59
2022/02/06 05:39:55;;;;;;;2.95;1.30;;;4.70;1.00;;;;;;7362932;19;20020;-60
2022/02/06 05:42:25;;;;;;;2.72;1.25;;;4.70;1.00;;;;;;7386747;19;20074;-59
2022/02/06 05:44:56;;;;;;;3.30;1.30;;;4.70;1.00;;;;;;7359910;19;20711;-59
2022/02/06 05:47:29;;;;;;;3.22;1.20;;;4.70;1.00;;;;;;7363543;19;20006;-59
2022/02/06 05:49:59;;;;;;;4.00;0.98;;;4.70;1.00;;;;;;7362817;19;20170;-59
2022/02/06 05:52:29;;;;;;;6.88;1.40;;;4.70;1.00;;;;;;7365534;19;20047;-59
2022/02/06 05:55:00;;;;;;;3.20;1.20;;;4.70;1.00;;;;;;7355442;19;20025;-59
2022/02/06 05:57:30;;;;;;;4.05;1.35;;;4.80;1.00;;;;;;7385057;19;20039;-58
2022/02/06 05:59:59;;;;;;;4.80;1.05;;;4.80;1.00;;;;;;7365452;19;20018;-59
2022/02/06 06:02:32;;;;;;;5.93;1.63;;;4.80;1.00;;;;;;7363094;19;20007;-59
2022/02/06 06:05:02;;;;;;;5.03;1.40;;;4.80;1.00;;;;;;7357831;19;20074;-59
2022/02/06 06:07:32;;;;;;;3.97;1.42;;;4.80;1.00;;;;;;7366388;19;20015;-59
2022/02/06 06:10:01;;;;;;;8.77;1.48;;;4.80;1.00;;;;;;7360666;19;20493;-59
2022/02/06 06:12:31;;;;;;;4.32;1.70;;;4.80;1.00;;;;;;7384624;19;20469;-59
2022/02/06 06:15:01;;;;;;;4.38;1.20;;;4.80;1.00;;;;;;7359136;19;20788;-59
2022/02/06 06:17:35;;;;;;;3.22;1.38;;;4.90;1.00;;;;;;7361989;19;20482;-60
2022/02/06 06:20:09;;;;;;;5.25;1.45;;;4.80;1.00;;;;;;7362581;19;20010;-59
2022/02/06 06:22:39;;;;;;;6.93;1.50;;;4.80;1.00;;;;;;7365632;19;20011;-59
2022/02/06 06:25:11;;;;;;;3.65;1.27;;;4.90;1.00;;;;;;7355415;19;20019;-60
2022/02/06 06:27:41;;;;;;;5.25;1.40;;;4.80;1.00;;;;;;7385169;19;20162;-59
2022/02/06 06:30:12;;;;;;;1.63;0.80;;;4.90;1.00;;;;;;7365077;19;20020;-59
2022/02/06 06:32:45;;;;;;;3.67;1.35;;;4.90;1.00;;;;;;7360585;19;20029;-59
2022/02/06 06:35:16;;;;;;;4.13;1.20;;;4.90;1.00;;;;;;7357384;19;20010;-59
2022/02/06 06:37:48;;;;;;;2.55;1.10;;;4.90;1.00;;;;;;7363858;19;20097;-59
2022/02/06 06:40:18;;;;;;;3.63;1.33;;;4.80;1.00;;;;;;7363443;19;20006;-60
2022/02/06 06:42:48;;;;;;;5.07;1.70;;;4.90;1.00;;;;;;7375683;19;20006;-60
2022/02/06 06:45:17;;;;;;;4.75;1.50;;;4.90;1.00;;;;;;7387881;19;20003;-59
2022/02/06 06:47:55;;;;;;;5.30;1.90;;;4.90;1.00;;;;;;7367867;19;20471;-60
2022/02/06 06:50:32;;;;;;;5.50;1.20;;;4.90;1.00;;;;;;7368342;19;20495;-61
2022/02/06 06:53:03;;;;;;;11.00;1.75;;;4.90;1.00;;;;;;7367963;19;20398;-59
2022/02/06 06:55:35;;;;;;;5.10;1.17;;;4.90;1.00;;;;;;7364270;19;20009;-59
2022/02/06 06:58:12;;;;;;;6.05;1.13;;;5.00;1.00;;;;;;7368268;19;20019;-59
2022/02/06 07:00:54;;;;;;;2.97;1.55;;;5.00;1.00;;;;;;7392494;19;20010;-60
2022/02/06 07:03:28;;;;;;;7.25;1.42;;;5.00;1.00;;;;;;7365313;19;20479;-60
2022/02/06 07:05:58;;;;;;;;;;;5.10;1.00;;;;;;7367097;19;20011;-60
2022/02/06 07:08:29;;;;;;;3.50;1.10;;;5.10;1.00;;;;;;7368477;19;19910;-59
2022/02/06 07:11:00;;;;;;;3.20;1.13;;;5.10;1.00;;;;;;7370139;19;20006;-59
2022/02/06 07:13:30;;;;;;;5.75;1.08;;;5.10;1.00;;;;;;7359931;19;20082;-60
2022/02/06 07:16:01;;;;;;;3.85;1.55;;;5.10;1.00;;;;;;7368858;19;20463;-60
2022/02/06 07:18:34;;;;;;;4.78;1.27;;;5.10;1.00;;;;;;7388019;19;20017;-61
2022/02/06 07:21:04;;;;;;;8.10;1.52;;;5.20;1.00;;;;;;7367022;19;20506;-59
2022/02/06 07:23:34;;;;;;;2.63;1.63;;;5.20;1.00;;;;;;7359819;19;20025;-59
2022/02/06 07:26:07;;;;;;;3.72;1.67;;;5.20;1.00;;;;;;7368686;19;20015;-59
2022/02/06 07:28:41;;;;;;;3.03;1.20;;;5.30;1.00;;;;;;7367196;19;21602;-59
2022/02/06 07:31:11;;;;;;;3.28;1.20;;;5.30;1.00;;;;;;7369662;19;20027;-59
2022/02/06 07:33:43;;;;;;;7.85;1.73;;;5.30;1.00;;;;;;7383323;19;20074;-59
2022/02/06 07:36:13;;;;;;;6.70;1.25;;;5.30;1.00;;;;;;7365933;19;20470;-59
2022/02/06 07:38:43;;;;;;;4.47;1.10;;;5.30;1.00;;;;;;7366228;19;20074;-59
2022/02/06 07:41:13;;;;;;;4.07;1.15;;;5.40;1.00;;;;;;7370202;19;20026;-59
2022/02/06 07:43:43;;;;;;;4.30;1.02;;;5.40;1.00;;;;;;7358780;19;20047;-59
2022/02/06 07:46:17;;;;;;;6.40;1.67;;;5.40;1.00;;;;;;7367262;19;20011;-59
2022/02/06 07:48:50;;;;;;;7.00;1.77;;;5.40;1.00;;;;;;7378796;19;20014;-59
2022/02/06 07:51:20;;;;;;;4.05;1.30;;;5.40;1.00;;;;;;7387644;19;20018;-59
2022/02/06 07:53:50;;;;;;;5.75;1.50;;;5.50;1.00;;;;;;7356566;19;20014;-60
2022/02/06 07:56:20;;;;;;;6.10;1.52;;;5.50;1.00;;;;;;7368792;19;20014;-60
2022/02/06 07:58:50;;;;;;;3.42;1.50;;;5.50;1.00;;;;;;7365843;19;20006;-59
2022/02/06 08:01:20;;;;;;;6.75;1.75;;;5.50;1.00;;;;;;7368733;19;20014;-59
2022/02/06 08:03:52;;;;;;;4.05;1.13;;;5.50;1.00;;;;;;7361006;19;20017;-60
2022/02/06 08:06:22;;;;;;;6.78;1.45;;;5.60;1.00;;;;;;7385491;19;20763;-59
2022/02/06 08:08:52;;;;;;;5.00;1.23;;;5.60;1.00;;;;;;7366010;19;20006;-59
2022/02/06 08:11:22;;;;;;;6.05;1.10;;;5.60;1.00;;;;;;7368539;19;20479;-60
2022/02/06 08:13:56;;;;;;;5.28;1.20;;;5.60;1.00;;;;;;7355817;19;20031;-60
2022/02/06 08:16:25;;;;;;;8.40;1.80;;;5.60;1.00;;;;;;7366146;19;20458;-59
2022/02/06 08:18:58;;;;;;;6.57;1.50;;;5.60;1.00;;;;;;7365982;19;20036;-59
2022/02/06 08:21:28;;;;;;;5.07;1.58;;;5.60;1.00;;;;;;7387337;19;20077;-60
2022/02/06 08:23:58;;;;;;;6.10;1.38;;;5.60;1.00;;;;;;7357810;19;20478;-59
2022/02/06 08:26:28;;;;;;;4.88;1.50;;;5.70;1.00;;;;;;7366710;19;20007;-59
2022/02/06 08:29:01;;;;;;;5.97;1.23;;;5.70;1.00;;;;;;7365628;19;20047;-59
2022/02/06 08:31:30;;;;;;;2.22;1.10;;;5.70;1.00;;;;;;7366259;19;20079;-59
2022/02/06 08:34:03;;;;;;;7.68;1.88;;;5.70;1.00;;;;;;7358349;19;20006;-59
2022/02/06 08:36:33;;;;;;;3.58;1.35;;;5.80;1.00;;;;;;7385219;19;20009;-59
2022/02/06 08:39:07;;;;;;;;;;;5.80;1.00;;;;;;7365415;19;20483;-59
2022/02/06 08:41:37;;;;;;;4.00;1.40;;;5.80;1.00;;;;;;7366759;19;19917;-59
2022/02/06 08:44:08;;;;;;;3.63;1.10;;;5.90;1.00;;;;;;7356971;19;21250;-60
2022/02/06 08:46:37;;;;;;;6.18;1.50;;;6.00;1.00;;;;;;7365006;19;20006;-59
2022/02/06 08:49:10;;;;;;;2.83;1.13;;;6.00;1.00;;;;;;7366026;19;20804;-59
2022/02/06 08:51:40;;;;;;;2.33;1.17;;;6.10;1.00;;;;;;7385346;19;20018;-59
2022/02/06 08:54:10;;;;;;;5.45;1.95;;;6.10;1.00;;;;;;7355881;19;20078;-59
2022/02/06 08:56:40;;;;;;;7.50;1.23;;;6.20;1.00;;;;;;7366096;19;20116;-59
2022/02/06 08:59:11;;;;;;;6.13;1.55;;;6.20;1.00;;;;;;7363986;19;20007;-59
2022/02/06 09:01:41;;;;;;;4.07;1.38;;;6.20;1.00;;;;;;7366018;19;20018;-59
2022/02/06 09:04:17;;;;;;;6.30;1.52;;;6.30;1.00;;;;;;7356766;19;20018;-59
2022/02/06 09:06:46;;;;;;;3.83;1.48;;;6.30;1.00;;;;;;7383950;19;20014;-59
2022/02/06 09:09:17;;;;;;;4.72;1.27;;;6.30;1.00;;;;;;7364377;19;20007;-59
2022/02/06 09:11:47;;;;;;;2.38;1.00;;;6.30;1.00;;;;;;7365805;19;20510;-59
2022/02/06 09:14:18;;;;;;;2.75;1.10;;;6.30;1.00;;;;;;7354424;19;20010;-60
2022/02/06 09:16:48;;;;;;;4.15;1.27;;;6.30;1.00;;;;;;7364595;19;20082;-59
2022/02/06 09:19:21;;;;;;;2.92;1.20;;;6.30;1.00;;;;;;7364547;19;20006;-59
2022/02/06 09:21:51;;;;;;;3.95;1.20;;;6.30;1.00;;;;;;7363140;19;20017;-59
2022/02/06 09:24:22;;;;;;;3.63;1.10;;;6.40;1.00;;;;;;7377450;19;20363;-59
2022/02/06 09:26:52;;;;;;;2.67;1.30;;;6.40;1.00;;;;;;7365118;19;20102;-59
2022/02/06 09:29:22;;;;;;;3.70;1.10;;;6.40;1.00;;;;;;7362464;19;20328;-59
2022/02/06 09:31:53;;;;;;;9.35;1.92;;;6.40;1.00;;;;;;7364702;19;20411;-60
2022/02/06 09:36:52;;;;;;;3.47;1.20;;;6.40;1.00;;;;;;7361260;19;20074;-58
2022/02/06 09:39:22;;;;;;;4.10;1.92;;;6.40;1.00;;;;;;7384531;19;20006;-59
2022/02/06 09:41:52;;;;;;;3.45;1.33;;;6.40;1.00;;;;;;7365526;19;20038;-58
2022/02/06 09:44:25;;;;;;;5.45;1.55;;;6.40;1.00;;;;;;7353576;19;20002;-59
2022/02/06 09:46:58;;;;;;;7.38;1.60;;;6.50;1.00;;;;;;7363483;19;20064;-59
2022/02/06 09:49:32;;;;;;;5.40;1.20;;;6.50;1.00;;;;;;7363464;19;20015;-59
2022/02/06 09:52:02;;;;;;;5.13;0.90;;;6.50;1.00;;;;;;7362208;19;20096;-59
2022/02/06 09:54:32;;;;;;;4.03;1.10;;;6.50;1.00;;;;;;7376191;19;20015;-59
2022/02/06 09:57:11;;;;;;;4.03;1.13;;;6.50;1.00;;;;;;7363955;19;20010;-59
2022/02/06 09:59:41;;;;;;;5.28;0.93;;;6.60;1.00;;;;;;7360032;19;20070;-59
2022/02/06 10:02:12;;;;;;;7.50;1.23;;;6.60;1.00;;;;;;7364355;19;20006;-58
2022/02/06 10:04:46;;;;;;;3.70;1.00;;;6.60;1.00;;;;;;7356155;19;20010;-60
2022/02/06 10:07:18;;;;;;;5.13;1.55;;;6.60;1.00;;;;;;7361196;19;20014;-60
2022/02/06 10:09:54;;;;;;;3.80;1.20;;;6.60;1.00;;;;;;7378723;19;20533;-61
2022/02/06 10:12:25;;;;;;;4.72;1.35;;;6.60;1.00;;;;;;7384793;19;20086;-60
2022/02/06 10:14:55;;;;;;;2.10;1.10;;;6.60;1.00;;;;;;7352311;19;20007;-58
2022/02/06 10:17:26;;;;;;;4.13;1.20;;;6.70;1.00;;;;;;7367442;19;20018;-59
2022/02/06 10:20:01;;;;;;;3.97;1.20;;;6.70;1.00;;;;;;7370456;19;20167;-59
2022/02/06 10:22:38;;;;;;;5.60;1.08;;;6.70;1.00;;;;;;7369310;19;20029;-59
2022/02/06 10:25:10;;;;;;;4.10;1.45;;;6.80;1.00;;;;;;7361890;19;20026;-59
2022/02/06 10:27:59;;;;;;;5.00;1.25;;;6.80;1.00;;;;;;7392874;19;20006;-59
2022/02/06 10:30:42;;;;;;;3.85;1.10;;;6.90;1.00;;;;;;7370942;19;20089;-59
2022/02/06 10:33:15;;;;;;;4.85;1.50;;;6.90;1.00;;;;;;7363226;19;20015;-60
2022/02/06 10:35:51;;;;;;;3.50;1.80;;;6.90;1.00;;;;;;7365135;19;20120;-60
2022/02/06 10:38:22;;;;;;;5.85;1.30;;;7.00;1.00;;;;;;7369980;19;20006;-58
2022/02/06 10:41:11;;;;;;;4.90;0.88;;;7.10;1.00;;;;;;7368717;19;20020;-60
2022/02/06 10:43:57;;;;;;;3.80;0.80;;;7.20;1.00;;;;;;7361803;19;20018;-60
2022/02/06 10:46:35;;;;;;;4.20;1.13;;;7.30;1.00;;;;;;7368731;19;20035;-59
2022/02/06 10:49:12;;;;;;;3.78;0.88;;;7.30;1.00;;;;;;7369341;19;20568;-59
2022/02/06 10:51:49;;;;;;;3.55;1.17;;;7.30;1.00;;;;;;7389625;19;20018;-58
2022/02/06 10:54:21;;;;;;;3.28;0.85;;;7.40;1.00;;;;;;7359533;19;20538;-60
2022/02/06 10:57:02;;;;;;;3.00;1.08;;;7.40;1.00;;;;;;7368873;19;20025;-58
2022/02/06 10:59:58;;;;;;;2.70;1.00;;;7.40;1.00;;;;;;7368289;19;20011;-59
2022/02/06 11:02:37;;;;;;;6.85;1.23;;;7.50;1.00;;;;;;7365887;19;20574;-58
2022/02/06 11:05:15;;;;;;;3.65;1.00;;;7.40;1.00;;;;;;7360498;19;20428;-59
2022/02/06 11:07:56;;;;;;;3.67;1.05;;;7.40;1.00;;;;;;7368958;19;20104;-59
2022/02/06 11:10:30;;;;;;;3.65;0.98;;;7.50;1.00;;;;;;7367478;19;20014;-61
2022/02/06 11:13:02;;;;;;;3.42;1.25;;;7.60;1.00;;;;;;7366992;19;20014;-61
2022/02/06 11:15:35;;;;;;;4.07;1.20;;;7.60;1.00;;;;;;7384661;19;20019;-60
2022/02/06 11:18:08;;;;;;;2.20;1.08;;;7.60;1.00;;;;;;7365758;19;20090;-60
2022/02/06 11:20:39;;;;;;;3.42;1.10;;;7.60;1.00;;;;;;7367385;19;20050;-59
2022/02/06 11:23:11;;;;;;;3.90;1.33;;;7.60;1.00;;;;;;7365893;19;20073;-59
2022/02/06 11:25:44;;;;;;;3.83;1.02;;;7.60;1.00;;;;;;7363208;19;20021;-58
2022/02/06 11:28:16;;;;;;;3.08;1.02;;;7.60;1.00;;;;;;7363284;19;20324;-59
2022/02/06 11:30:46;;;;;;;4.50;0.90;;;7.50;1.00;;;;;;7391225;19;20085;-59
2022/02/06 11:33:16;;;;;;;4.22;1.05;;;7.60;1.00;;;;;;7361393;19;20028;-59
2022/02/06 11:35:55;;;;;;;3.28;0.80;;;7.50;1.00;;;;;;7363614;19;20378;-59
2022/02/06 11:45:10;;;;;;;1.17;0.60;;;7.50;1.00;;;;;;7359928;19;20010;-59
2022/02/06 11:47:43;;;;;;;2.25;0.95;;;7.50;1.00;;;;;;7362938;19;20494;-59
2022/02/06 11:50:16;;;;;;;3.67;0.90;;;7.50;1.00;;;;;;7367202;19;20027;-59
2022/02/06 11:52:56;;;;;;;1.40;0.80;;;7.60;1.00;;;;;;7367640;19;20311;-59
2022/02/06 11:55:49;;;;;;;3.65;1.10;;;7.60;1.00;;;;;;7360423;19;20010;-59
2022/02/06 11:58:25;;;;;;;2.28;0.60;;;7.60;1.00;;;;;;7365482;19;20007;-59
2022/02/06 12:01:24;;;;;;;2.65;1.13;;;7.60;1.00;;;;;;7368387;19;20093;-59
2022/02/06 12:04:00;;;;;;;2.65;0.68;;;7.70;1.00;;;;;;7357287;19;20015;-60
2022/02/06 12:06:32;;;;;;;1.40;0.70;;;7.80;1.00;;;;;;7381495;19;20481;-58
2022/02/06 12:09:15;;;;;;;1.05;0.73;;;7.80;1.00;;;;;;7363267;19;20016;-60
2022/02/06 12:12:14;;;;;;;2.25;0.70;;;7.80;1.00;;;;;;7366124;19;20181;-60
2022/02/06 12:14:51;;;;;;;2.78;0.80;;;7.90;1.00;;;;;;7354798;19;20010;-58
2022/02/06 12:17:26;;;;;;;2.60;0.90;;;7.90;1.00;;;;;;7362991;19;20801;-60
2022/02/06 12:20:10;;;;;;;0.95;0.25;;;7.80;1.00;;;;;;7363548;19;20113;-59
2022/02/06 12:22:51;;;;;;;0.88;0.60;;;7.90;1.00;;;;;;7365084;19;20018;-60
2022/02/06 12:25:31;;;;;;;0.90;0.50;;;7.90;1.00;;;;;;7353422;19;20019;-59
2022/02/06 12:28:31;;;;;;;0.68;0.35;;;7.80;1.00;;;;;;7362346;19;20421;-60
2022/02/06 12:31:27;;;;;;;1.83;0.43;;;7.90;1.00;;;;;;7366712;19;20082;-59
2022/02/06 12:34:10;;;;;;;1.85;0.50;;;7.90;1.00;;;;;;7355819;19;20018;-59
2022/02/06 12:39:30;;;;;;;0.60;0.40;;;8.00;1.00;;;;;;7361951;19;20025;-59
2022/02/06 12:42:01;;;;;;;1.42;0.68;;;8.00;1.00;;;;;;7365037;19;20032;-59
2022/02/06 12:44:34;;;;;;;1.25;0.50;;;8.10;1.00;;;;;;7352900;19;20039;-59
2022/02/06 12:47:06;;;;;;;0.95;0.50;;;8.10;1.00;;;;;;7362919;19;20032;-58
2022/02/06 12:49:39;;;;;;;0.98;0.47;;;8.00;1.00;;;;;;7364237;19;20014;-58
2022/02/06 12:52:09;;;;;;;0.88;0.60;;;8.00;1.00;;;;;;7361929;19;20000;-58
2022/02/06 12:54:39;;;;;;;2.40;0.45;;;8.00;1.00;;;;;;7374830;19;20026;-59
2022/02/06 12:57:09;;;;;;;1.00;0.63;;;7.90;1.00;;;;;;7362605;19;20021;-59
2022/02/06 12:59:42;;;;;;;1.52;0.50;;;7.90;1.00;;;;;;7360102;19;20049;-59
2022/02/06 13:02:14;;;;;;;2.33;0.52;;;7.90;1.00;;;;;;7363580;19;20006;-59
2022/02/06 13:05:00;;;;;;;1.75;0.52;;;8.00;1.00;;;;;;7356260;19;20014;-59
2022/02/06 13:07:30;;;;;;;1.48;0.50;;;7.90;1.00;;;;;;7361844;19;20066;-59
2022/02/06 13:10:09;;;;;;;0.70;0.40;;;7.80;1.00;;;;;;7361530;19;20049;-59
2022/02/06 13:12:46;;;;;;;3.63;1.25;;;7.80;1.00;;;;;;7385550;19;20096;-59
2022/02/06 13:18:18;;;;;;;1.60;0.80;;;7.70;1.00;;;;;;7359189;19;20025;-59
2022/02/06 13:21:10;;;;;;;1.08;0.60;;;7.70;1.00;;;;;;7362644;19;20014;-58
2022/02/06 13:24:01;;;;;;;1.23;0.55;;;7.60;1.00;;;;;;7357354;19;20017;-58
2022/02/06 13:26:39;;;;;;;1.48;0.57;;;7.50;1.00;;;;;;7361964;19;20474;-59
2022/02/06 13:29:24;;;;;;;1.05;0.50;;;7.50;1.00;;;;;;7361772;19;20045;-60
2022/02/06 13:32:13;;;;;;;1.17;0.57;;;7.50;1.00;;;;;;7364343;19;19998;-60
2022/02/06 13:34:56;;;;;;;0.57;0.40;;;7.50;1.00;;;;;;7354248;19;20006;-60
2022/02/06 13:37:41;;;;;;;2.70;0.57;;;7.40;1.00;;;;;;7361658;19;20011;-60
2022/02/06 13:40:17;;;;;;;1.10;0.43;;;7.30;1.00;;;;;;7363732;19;20069;-59
2022/02/06 13:43:01;;;;;;;3.20;0.50;;;7.20;1.00;;;;;;7386845;19;20070;-60
2022/02/06 13:45:31;;;;;;;1.48;0.40;;;7.20;1.00;;;;;;7359717;19;21402;-58
2022/02/06 13:48:06;;;;;;;1.58;0.50;;;7.20;3.00;;;;;;7360312;19;20006;-60
2022/02/06 13:50:43;;;;;;;1.08;0.50;;;7.10;2.90;;;;;;7362514;19;20011;-59
2022/02/06 13:53:15;;;;;;;1.35;0.47;;;7.10;4.60;;;;;;7359842;19;20011;-60
2022/02/06 13:55:49;;;;;;;1.50;0.50;;;7.00;3.20;;;;;;7358330;19;20014;-59
2022/02/06 13:58:24;;;;;;;0.80;0.40;;;7.00;4.10;;;;;;7362442;19;20049;-59
2022/02/06 14:01:00;;;;;;;;;;;6.80;6.20;;;;;;7364896;19;20492;-60
2022/02/06 14:03:48;;;;;;;1.10;0.60;;;6.80;7.30;;;;;;7374875;19;19961;-59
2022/02/06 14:06:24;;;;;;;2.13;0.98;;;6.80;9.50;;;;;;7359769;19;20461;-59
2022/02/06 14:09:21;;;;;;;;;;;6.70;9.00;;;;;;7363647;19;20017;-59
2022/02/06 14:12:05;;;;;;;0.93;0.40;;;6.70;10.00;;;;;;7362419;19;19920;-59
2022/02/06 14:14:38;;;;;;;2.55;0.50;;;6.60;10.70;;;;;;7352864;19;20664;-58
2022/02/06 14:17:30;;;;;;;4.07;0.68;;;6.60;11.60;;;;;;7360252;19;20119;-59
2022/02/06 14:20:11;;;;;;;2.58;0.47;;;6.50;10.80;;;;;;7363190;19;20007;-59
2022/02/06 14:22:47;;;;;;;1.17;0.40;;;6.50;11.30;;;;;;7361603;19;20029;-59
2022/02/06 14:25:27;;;;;;;0.90;0.50;;;6.50;12.10;;;;;;7354012;19;20462;-59
2022/02/06 14:27:58;;;;;;;1.40;0.30;;;6.50;12.30;;;;;;7384518;19;20011;-59
2022/02/06 14:30:38;;;;;;;0.55;0.40;;;6.50;11.80;;;;;;7350993;19;20534;-58
2022/02/06 14:33:09;;;;;;;2.40;0.30;;;6.40;12.30;;;;;;7356192;19;20022;-60
2022/02/06 14:35:49;;;;;;;1.05;0.50;;;6.40;12.20;;;;;;7359371;19;20033;-59
2022/02/06 14:38:28;;;;;;;0.88;0.50;;;6.40;11.70;;;;;;7360815;19;20062;-58
2022/02/06 14:41:20;;;;;;;0.95;0.40;;;6.40;12.50;;;;;;7361512;19;20039;-58
2022/02/06 14:43:57;;;;;;;0.38;0.30;;;6.40;12.10;;;;;;7356057;19;20006;-59
2022/02/06 14:46:29;;;;;;;1.08;0.30;;;6.40;11.40;;;;;;7363988;19;20470;-59
2022/02/06 14:49:01;;;;;;;0.68;0.40;;;6.40;12.00;;;;;;7360168;19;20091;-59
2022/02/06 14:51:35;;;;;;;0.88;0.35;;;6.40;12.30;;;;;;7383074;19;20462;-59
2022/02/06 14:54:08;;;;;;;2.88;0.73;;;6.40;11.80;;;;;;7354252;19;20026;-59
2022/02/06 14:56:42;;;;;;;1.13;0.40;;;6.40;12.10;;;;;;7358617;19;20479;-58
2022/02/06 14:59:12;;;;;;;0.97;0.53;;;6.30;12.10;;;;;;7359712;19;20025;-59
2022/02/06 15:01:42;;;;;;;2.65;0.60;;;6.30;12.90;;;;;;7363963;19;20015;-59
2022/02/06 15:04:13;;;;;;;1.67;0.63;;;6.30;11.90;;;;;;7357591;19;20031;-60
2022/02/06 15:06:46;;;;;;;1.20;0.55;;;6.30;12.50;;;;;;7389102;19;20018;-59
2022/02/06 15:09:16;;;;;;;1.75;0.20;;;6.20;12.00;;;;;;7368049;19;20045;-59
2022/02/06 15:11:45;;;;;;;1.02;0.43;;;6.20;12.10;;;;;;7366046;19;20018;-59
2022/02/06 15:14:16;;;;;;;0.52;0.30;;;6.20;13.40;;;;;;7358898;19;20092;-59